createdAt,value
2017-06-15T00:01:20.600Z,4.70
2017-06-15T00:03:48.237Z,6.87
2017-06-15T00:06:15.918Z,6.37
2017-06-15T00:08:43.649Z,6.25
2017-06-15T00:11:11.282Z,9.48
2017-06-15T00:13:38.976Z,7.07
2017-06-15T00:16:06.616Z,6.78
2017-06-15T00:18:34.348Z,6.05
2017-06-15T00:21:02.820Z,5.53
2017-06-15T00:23:31.231Z,5.65
2017-06-15T00:25:58.872Z,6.85
2017-06-15T00:28:26.560Z,5.95
2017-06-15T00:30:54.200Z,5.90
2017-06-15T00:33:21.831Z,6.80
2017-06-15T00:35:49.521Z,6.30
2017-06-15T00:38:17.930Z,7.55
2017-06-15T00:40:45.570Z,6.95
2017-06-15T00:43:13.269Z,6.78
2017-06-15T00:45:41.676Z,6.93
2017-06-15T00:48:09.305Z,7.50
2017-06-15T00:50:36.989Z,7.05
2017-06-15T00:53:04.621Z,7.03
2017-06-15T00:55:32.260Z,7.62
2017-06-15T00:57:59.948Z,7.82
2017-06-15T01:00:27.588Z,6.20
2017-06-15T01:02:55.224Z,7.78
2017-06-15T01:05:22.908Z,6.28
2017-06-15T01:07:50.547Z,6.65
2017-06-15T01:10:18.192Z,6.53
2017-06-15T01:12:45.872Z,6.80
2017-06-15T01:15:13.504Z,6.90
2017-06-15T01:17:41.135Z,8.00
2017-06-15T01:20:08.821Z,7.45
2017-06-15T01:22:36.470Z,6.87
2017-06-15T01:25:04.102Z,6.90
2017-06-15T01:27:31.785Z,7.47
2017-06-15T01:29:59.416Z,7.68
2017-06-15T01:32:27.053Z,7.25
2017-06-15T01:34:54.728Z,7.60
2017-06-15T01:37:22.357Z,5.90
2017-06-15T01:39:49.994Z,7.40
2017-06-15T01:42:17.701Z,8.10
2017-06-15T01:44:45.333Z,8.85
2017-06-15T01:47:12.973Z,7.35
2017-06-15T01:49:40.656Z,7.28
2017-06-15T01:52:09.060Z,7.40
2017-06-15T01:54:36.708Z,6.68
2017-06-15T01:57:04.392Z,7.37
2017-06-15T01:59:32.032Z,7.70
2017-06-15T02:01:59.669Z,6.90
2017-06-15T02:04:27.352Z,8.20
2017-06-15T02:06:54.989Z,6.93
2017-06-15T02:09:22.620Z,7.32
2017-06-15T02:11:50.307Z,7.70
2017-06-15T02:14:17.936Z,7.85
2017-06-15T02:16:46.498Z,7.93
2017-06-15T02:19:14.180Z,8.27
2017-06-15T02:21:41.817Z,9.15
2017-06-15T02:24:09.448Z,7.22
2017-06-15T02:26:37.903Z,7.10
2017-06-15T02:29:06.309Z,7.75
2017-06-15T02:31:33.948Z,8.35
2017-06-15T02:34:01.633Z,7.60
2017-06-15T02:36:29.269Z,7.65
2017-06-15T02:38:56.909Z,9.18
2017-06-15T02:41:24.594Z,8.20
2017-06-15T02:43:52.230Z,7.40
2017-06-15T02:46:19.878Z,7.80
2017-06-15T02:48:47.573Z,8.68
2017-06-15T02:51:15.211Z,7.65
2017-06-15T02:53:42.859Z,9.00
2017-06-15T02:56:10.581Z,6.15
2017-06-15T02:58:38.221Z,7.82
2017-06-15T03:01:05.865Z,7.97
2017-06-15T03:03:33.550Z,8.10
2017-06-15T03:06:01.191Z,7.47
2017-06-15T03:08:28.827Z,8.55
2017-06-15T03:10:57.383Z,11.70
2017-06-15T03:13:25.019Z,9.35
2017-06-15T03:15:52.676Z,7.97
2017-06-15T03:18:21.174Z,7.57
2017-06-15T03:20:48.808Z,8.85
2017-06-15T03:23:16.447Z,8.77
2017-06-15T03:25:44.156Z,8.23
2017-06-15T03:28:11.794Z,7.78
2017-06-15T03:30:39.440Z,7.70
2017-06-15T03:33:07.121Z,8.32
2017-06-15T03:35:34.783Z,7.20
2017-06-15T03:38:03.192Z,9.35
2017-06-15T03:40:30.878Z,8.85
2017-06-15T03:42:58.522Z,8.38
2017-06-15T03:45:26.158Z,8.55
2017-06-15T03:47:53.840Z,8.73
2017-06-15T03:50:21.473Z,8.63
2017-06-15T03:52:49.107Z,8.45
2017-06-15T03:55:16.783Z,8.60
2017-06-15T03:57:44.426Z,7.28
2017-06-15T04:00:12.108Z,7.50
2017-06-15T04:02:39.847Z,8.93
2017-06-15T04:05:07.490Z,7.22
2017-06-15T04:07:35.131Z,7.25
2017-06-15T04:10:02.819Z,7.40
2017-06-15T04:12:30.456Z,6.30
2017-06-15T04:14:58.181Z,7.30
2017-06-15T04:17:25.872Z,8.00
2017-06-15T04:19:53.509Z,7.05
2017-06-15T04:22:24.638Z,7.47
2017-06-15T04:24:52.320Z,6.43
2017-06-15T04:27:28.924Z,7.15
2017-06-15T04:29:56.606Z,7.28
2017-06-15T04:32:30.165Z,6.78
2017-06-15T04:34:57.885Z,6.65
2017-06-15T04:37:25.520Z,8.25
2017-06-15T04:39:53.149Z,6.70
2017-06-15T04:42:21.610Z,10.13
2017-06-15T04:44:49.232Z,6.35
2017-06-15T04:47:16.868Z,6.47
2017-06-15T04:49:44.550Z,8.00
2017-06-15T04:52:12.225Z,6.95
2017-06-15T04:54:39.855Z,6.68
2017-06-15T04:57:07.538Z,7.12
2017-06-15T04:59:35.172Z,6.78
2017-06-15T05:02:02.834Z,6.43
2017-06-15T05:04:30.575Z,5.10
2017-06-15T05:06:58.308Z,5.62
2017-06-15T05:09:25.946Z,6.05
2017-06-15T05:11:53.630Z,5.62
2017-06-15T05:14:21.268Z,5.00
2017-06-15T05:16:48.910Z,5.68
2017-06-15T05:19:16.711Z,5.43
2017-06-15T05:21:45.117Z,6.68
2017-06-15T05:24:12.728Z,6.17
2017-06-15T05:26:40.399Z,4.90
2017-06-15T05:29:08.056Z,5.77
2017-06-15T05:31:35.676Z,6.30
2017-06-15T05:34:04.125Z,5.40
2017-06-15T05:36:31.752Z,6.00
2017-06-15T05:38:59.387Z,5.50
2017-06-15T05:41:27.064Z,5.27
2017-06-15T05:43:54.685Z,5.13
2017-06-15T05:46:22.296Z,5.80
2017-06-15T05:48:50.720Z,6.50
2017-06-15T05:51:18.368Z,5.80
2017-06-15T05:53:45.992Z,6.93
2017-06-15T05:56:13.654Z,5.40
2017-06-15T05:58:41.306Z,5.73
2017-06-15T06:01:08.935Z,7.37
2017-06-15T06:03:36.700Z,5.70
2017-06-15T06:06:04.318Z,5.20
2017-06-15T06:08:31.929Z,5.30
2017-06-15T06:11:00.524Z,7.63
2017-06-15T06:13:28.145Z,5.20
2017-06-15T06:15:55.759Z,5.27
2017-06-15T06:18:23.421Z,5.83
2017-06-15T06:20:51.038Z,4.80
2017-06-15T06:23:18.645Z,5.23
2017-06-15T06:25:46.309Z,4.70
2017-06-15T06:28:13.921Z,4.93
2017-06-15T06:30:41.541Z,5.10
2017-06-15T06:33:09.216Z,6.33
2017-06-15T06:35:36.845Z,7.40
2017-06-15T06:38:04.464Z,4.40
2017-06-15T06:40:32.128Z,6.20
2017-06-15T06:42:59.751Z,4.77
2017-06-15T06:45:27.360Z,6.03
2017-06-15T06:47:55.123Z,4.03
2017-06-15T06:50:22.761Z,5.30
2017-06-15T06:52:50.378Z,4.77
2017-06-15T06:55:18.098Z,3.80
2017-06-15T06:57:45.710Z,5.10
2017-06-15T07:00:13.321Z,4.10
2017-06-15T07:02:41.086Z,4.53
2017-06-15T07:05:08.875Z,4.30
2017-06-15T07:07:36.559Z,4.13
2017-06-15T07:10:04.299Z,3.93
2017-06-15T07:12:32.927Z,4.20
2017-06-15T07:15:00.546Z,4.07
2017-06-15T07:17:28.217Z,3.90
2017-06-15T07:19:55.827Z,3.47
2017-06-15T07:22:23.442Z,5.00
2017-06-15T07:24:51.115Z,4.47
2017-06-15T07:27:19.529Z,4.17
2017-06-15T07:29:47.140Z,4.50
2017-06-15T07:32:14.810Z,4.20
2017-06-15T07:34:42.416Z,3.90
2017-06-15T07:37:10.046Z,3.93
2017-06-15T07:39:37.714Z,3.03
2017-06-15T07:42:05.328Z,3.20
2017-06-15T07:44:32.938Z,3.50
2017-06-15T07:47:00.605Z,3.43
2017-06-15T07:49:28.503Z,3.70
2017-06-15T07:51:56.112Z,3.17
2017-06-15T07:54:23.780Z,3.77
2017-06-15T07:56:51.402Z,4.67
2017-06-15T07:59:19.024Z,3.47
2017-06-15T08:01:46.742Z,3.90
2017-06-15T08:04:14.410Z,4.37
2017-06-15T08:06:42.089Z,3.63
2017-06-15T08:09:09.761Z,3.53
2017-06-15T08:11:37.473Z,2.83
2017-06-15T08:14:05.223Z,4.47
2017-06-15T08:16:32.886Z,3.43
2017-06-15T08:19:00.545Z,4.57
2017-06-15T08:21:28.193Z,4.33
2017-06-15T08:23:56.171Z,3.23
2017-06-15T08:26:24.592Z,3.23
2017-06-15T08:28:52.207Z,3.37
2017-06-15T08:31:19.878Z,4.07
2017-06-15T08:33:47.493Z,3.50
2017-06-15T08:36:15.112Z,3.23
2017-06-15T08:38:43.552Z,3.53
2017-06-15T08:41:11.189Z,5.43
2017-06-15T08:43:38.840Z,3.90
2017-06-15T08:46:06.526Z,3.37
2017-06-15T08:48:34.953Z,3.70
2017-06-15T08:51:02.581Z,4.17
2017-06-15T08:53:30.242Z,3.00
2017-06-15T08:55:57.861Z,2.90
2017-06-15T08:58:25.543Z,3.03
2017-06-15T09:00:53.222Z,3.40
2017-06-15T09:03:21.604Z,3.93
2017-06-15T09:05:49.221Z,2.63
2017-06-15T09:08:16.881Z,3.40
2017-06-15T09:10:44.494Z,2.93
2017-06-15T09:13:12.105Z,2.27
2017-06-15T09:15:39.763Z,3.20
2017-06-15T09:18:07.405Z,2.70
2017-06-15T09:20:35.033Z,4.63
2017-06-15T09:23:02.780Z,2.60
2017-06-15T09:25:30.524Z,2.30
2017-06-15T09:27:58.149Z,3.00
2017-06-15T09:30:25.833Z,3.27
2017-06-15T09:32:53.442Z,2.80
2017-06-15T09:35:21.192Z,3.07
2017-06-15T09:37:48.864Z,2.07
2017-06-15T09:40:16.562Z,2.70
2017-06-15T09:42:44.198Z,2.00
2017-06-15T09:45:11.858Z,2.07
2017-06-15T09:47:39.710Z,2.27
2017-06-15T09:50:07.356Z,3.10
2017-06-15T09:52:35.706Z,2.90
2017-06-15T09:55:03.320Z,3.00
2017-06-15T09:57:30.974Z,2.60
2017-06-15T09:59:58.645Z,4.07
2017-06-15T10:02:26.248Z,3.10
2017-06-15T10:04:53.855Z,2.43
2017-06-15T10:07:21.552Z,2.60
2017-06-15T10:09:49.162Z,3.10
2017-06-15T10:12:16.774Z,3.13
2017-06-15T10:14:44.434Z,3.50
2017-06-15T10:17:12.037Z,3.50
2017-06-15T10:19:39.665Z,3.70
2017-06-15T10:22:07.338Z,3.40
2017-06-15T10:24:35.803Z,3.30
2017-06-15T10:27:04.378Z,4.27
2017-06-15T10:29:32.064Z,3.23
2017-06-15T10:31:59.724Z,3.50
2017-06-15T10:34:27.490Z,4.27
2017-06-15T10:36:55.187Z,3.30
2017-06-15T10:39:22.811Z,3.23
2017-06-15T10:41:50.416Z,3.80
2017-06-15T10:44:18.361Z,3.47
2017-06-15T10:46:46.028Z,3.20
2017-06-15T10:49:13.755Z,3.63
2017-06-15T10:51:41.481Z,3.60
2017-06-15T10:54:09.758Z,3.40
2017-06-15T10:56:37.424Z,3.70
2017-06-15T10:59:05.881Z,4.80
2017-06-15T11:01:33.496Z,3.73
2017-06-15T11:04:01.116Z,3.83
2017-06-15T11:06:28.859Z,3.10
2017-06-15T11:08:56.476Z,3.47
2017-06-15T11:11:24.899Z,3.60
2017-06-15T11:13:52.633Z,3.50
2017-06-15T11:16:21.131Z,5.20
2017-06-15T11:18:48.753Z,3.47
2017-06-15T11:21:17.189Z,3.33
2017-06-15T11:23:44.815Z,2.93
2017-06-15T11:26:12.535Z,2.93
2017-06-15T11:28:40.254Z,3.83
2017-06-15T11:31:07.994Z,4.93
2017-06-15T11:33:35.678Z,3.60
2017-06-15T11:36:03.346Z,3.60
2017-06-15T11:38:31.721Z,3.87
2017-06-15T11:41:00.067Z,3.50
2017-06-15T11:43:27.724Z,4.60
2017-06-15T11:45:55.328Z,5.20
2017-06-15T11:48:22.937Z,4.47
2017-06-15T11:50:50.617Z,3.27
2017-06-15T11:53:18.233Z,4.20
2017-06-15T11:55:45.909Z,3.80
2017-06-15T11:58:13.576Z,3.50
2017-06-15T12:00:41.198Z,4.40
2017-06-15T12:03:08.803Z,3.13
2017-06-15T12:05:36.469Z,3.30
2017-06-15T12:08:04.080Z,3.67
2017-06-15T12:10:31.705Z,5.43
2017-06-15T12:12:59.365Z,4.17
2017-06-15T12:15:26.972Z,3.83
2017-06-15T12:17:54.586Z,3.40
2017-06-15T12:20:22.248Z,4.30
2017-06-15T12:22:49.860Z,3.37
2017-06-15T12:25:17.483Z,3.47
2017-06-15T12:27:45.150Z,3.73
2017-06-15T12:30:12.757Z,3.80
2017-06-15T12:32:40.376Z,3.50
2017-06-15T12:35:08.045Z,3.50
2017-06-15T12:37:35.664Z,5.00
2017-06-15T12:40:03.276Z,4.63
2017-06-15T12:42:30.945Z,3.90
2017-06-15T12:44:58.566Z,4.07
2017-06-15T12:47:26.185Z,4.10
2017-06-15T12:49:53.841Z,5.30
2017-06-15T12:52:21.450Z,3.93
2017-06-15T12:54:49.065Z,4.90
2017-06-15T12:57:16.728Z,4.00
2017-06-15T12:59:44.341Z,4.13
2017-06-15T13:02:11.979Z,4.27
2017-06-15T13:04:39.636Z,7.47
2017-06-15T13:07:07.355Z,4.37
2017-06-15T13:09:34.995Z,4.27
2017-06-15T13:12:02.651Z,4.20
2017-06-15T13:14:30.256Z,4.30
2017-06-15T13:16:57.878Z,4.63
2017-06-15T13:19:25.600Z,3.47
2017-06-15T13:21:53.207Z,4.30
2017-06-15T13:24:20.821Z,3.57
2017-06-15T13:26:48.490Z,4.33
2017-06-15T13:29:16.097Z,3.73
2017-06-15T13:31:43.711Z,3.97
2017-06-15T13:34:11.382Z,3.93
2017-06-15T13:36:38.988Z,4.40
2017-06-15T13:39:06.602Z,4.33
2017-06-15T13:41:34.260Z,4.47
2017-06-15T13:44:01.869Z,4.20
2017-06-15T13:46:29.480Z,4.10
2017-06-15T13:48:57.157Z,4.23
2017-06-15T13:51:24.767Z,4.00
2017-06-15T13:53:52.380Z,3.90
2017-06-15T13:56:20.056Z,3.80
2017-06-15T13:58:47.673Z,3.80
2017-06-15T14:01:15.285Z,3.83
2017-06-15T14:03:42.948Z,4.20
2017-06-15T14:06:10.557Z,5.00
2017-06-15T14:08:38.202Z,4.70
2017-06-15T14:11:06.193Z,4.40
2017-06-15T14:13:33.875Z,3.60
2017-06-15T14:16:01.634Z,3.93
2017-06-15T14:18:29.364Z,4.30
2017-06-15T14:20:57.872Z,3.90
2017-06-15T14:23:25.555Z,4.17
2017-06-15T14:25:53.218Z,4.70
2017-06-15T14:28:20.948Z,4.30
2017-06-15T14:30:48.704Z,3.90
2017-06-15T14:33:16.378Z,4.97
2017-06-15T14:35:44.049Z,4.30
2017-06-15T14:38:12.508Z,4.67
2017-06-15T14:40:40.192Z,5.63
2017-06-15T14:43:07.814Z,5.33
2017-06-15T14:45:35.429Z,4.40
2017-06-15T14:48:03.080Z,3.87
2017-06-15T14:50:30.685Z,4.40
2017-06-15T14:52:58.302Z,4.90
2017-06-15T14:55:25.970Z,4.60
2017-06-15T14:57:53.597Z,4.40
2017-06-15T15:00:21.204Z,5.90
2017-06-15T15:02:48.872Z,4.50
2017-06-15T15:05:16.552Z,4.77
2017-06-15T15:07:44.173Z,3.90
2017-06-15T15:10:11.832Z,5.27
2017-06-15T15:12:39.444Z,4.10
2017-06-15T15:15:07.052Z,4.73
2017-06-15T15:17:34.719Z,4.33
2017-06-15T15:20:02.326Z,4.73
2017-06-15T15:22:29.941Z,4.60
2017-06-15T15:24:57.612Z,3.60
2017-06-15T15:27:25.225Z,5.30
2017-06-15T15:29:52.835Z,4.70
2017-06-15T15:32:20.496Z,4.27
2017-06-15T15:34:48.106Z,4.20
2017-06-15T15:37:15.976Z,3.90
2017-06-15T15:39:43.636Z,4.03
2017-06-15T15:42:11.249Z,4.17
2017-06-15T15:44:40.827Z,4.00
2017-06-15T15:47:08.513Z,5.23
2017-06-15T15:49:36.120Z,4.53
2017-06-15T15:52:03.736Z,5.03
2017-06-15T15:54:31.387Z,4.40
2017-06-15T15:56:59.105Z,4.70
2017-06-15T15:59:26.719Z,4.30
2017-06-15T16:01:54.379Z,3.70
2017-06-15T16:04:21.987Z,4.37
2017-06-15T16:06:49.600Z,4.00
2017-06-15T16:09:17.263Z,4.20
2017-06-15T16:11:44.872Z,5.90
2017-06-15T16:14:12.486Z,4.93
2017-06-15T16:16:40.153Z,3.70
2017-06-15T16:19:07.779Z,4.63
2017-06-15T16:21:35.417Z,4.27
2017-06-15T16:24:03.079Z,4.80
2017-06-15T16:26:30.685Z,4.87
2017-06-15T16:28:58.301Z,4.10
2017-06-15T16:31:26.738Z,5.07
2017-06-15T16:33:56.331Z,4.70
2017-06-15T16:36:24.405Z,4.23
2017-06-15T16:38:52.065Z,4.90
2017-06-15T16:41:19.676Z,4.20
2017-06-15T16:43:47.285Z,5.20
2017-06-15T16:46:14.944Z,4.50
2017-06-15T16:48:42.557Z,5.03
2017-06-15T16:51:10.173Z,5.10
2017-06-15T16:53:37.885Z,4.77
2017-06-15T16:56:05.510Z,6.77
2017-06-15T16:58:33.134Z,4.67
2017-06-15T17:01:01.584Z,5.13
2017-06-15T17:03:29.213Z,4.73
2017-06-15T17:05:56.866Z,4.90
2017-06-15T17:08:24.594Z,4.90
2017-06-15T17:10:53.112Z,4.70
2017-06-15T17:13:20.737Z,4.90
2017-06-15T17:15:48.400Z,5.53
2017-06-15T17:18:16.033Z,4.77
2017-06-15T17:20:43.819Z,5.67
2017-06-15T17:23:11.579Z,4.37
2017-06-15T17:25:39.223Z,4.40
2017-06-15T17:28:06.850Z,4.53
2017-06-15T17:30:35.397Z,4.27
2017-06-15T17:33:03.031Z,4.30
2017-06-15T17:35:30.656Z,5.03
2017-06-15T17:37:58.339Z,6.27
2017-06-15T17:40:25.977Z,4.83
2017-06-15T17:42:53.592Z,4.70
2017-06-15T17:45:21.254Z,4.80
2017-06-15T17:47:48.868Z,4.70
2017-06-15T17:50:17.736Z,4.30
2017-06-15T17:52:45.488Z,4.73
2017-06-15T17:55:13.103Z,4.43
2017-06-15T17:57:41.501Z,4.53
2017-06-15T18:00:09.206Z,4.37
2017-06-15T18:02:36.849Z,5.00
2017-06-15T18:05:04.483Z,5.40
2017-06-15T18:07:32.150Z,5.93
2017-06-15T18:10:00.530Z,5.03
2017-06-15T18:12:28.186Z,5.30
2017-06-15T18:14:55.847Z,5.40
2017-06-15T18:17:26.835Z,4.40
2017-06-15T18:19:57.157Z,4.90
2017-06-15T18:22:27.638Z,5.93
2017-06-15T18:24:55.394Z,5.97
2017-06-15T18:27:26.294Z,5.00
2017-06-15T18:29:57.185Z,5.23
2017-06-15T18:32:24.916Z,5.17
2017-06-15T18:34:52.565Z,4.97
2017-06-15T18:37:20.227Z,4.97
2017-06-15T18:39:47.833Z,5.63
2017-06-15T18:42:15.453Z,5.20
2017-06-15T18:44:43.113Z,4.80
2017-06-15T18:47:11.503Z,5.63
2017-06-15T18:49:39.112Z,5.30
2017-06-15T18:52:06.862Z,5.60
2017-06-15T18:54:34.496Z,5.10
2017-06-15T18:57:02.110Z,5.70
2017-06-15T18:59:29.805Z,4.77
2017-06-15T19:01:58.288Z,5.43
2017-06-15T19:04:25.905Z,5.90
2017-06-15T19:06:53.571Z,5.30
2017-06-15T19:09:21.194Z,5.67
2017-06-15T19:11:48.805Z,6.27
2017-06-15T19:14:16.472Z,6.17
2017-06-15T19:16:44.076Z,6.03
2017-06-15T19:19:11.692Z,6.13
2017-06-15T19:21:39.404Z,6.10
2017-06-15T19:24:07.021Z,6.40
2017-06-15T19:26:34.635Z,5.37
2017-06-15T19:29:02.304Z,5.63
2017-06-15T19:31:30.040Z,5.00
2017-06-15T19:33:57.648Z,6.20
2017-06-15T19:36:25.397Z,5.40
2017-06-15T19:38:53.028Z,5.13
2017-06-15T19:41:20.645Z,5.20
2017-06-15T19:43:48.315Z,6.10
2017-06-15T19:46:15.933Z,5.73
2017-06-15T19:48:44.312Z,4.73
2017-06-15T19:51:11.977Z,5.87
2017-06-15T19:53:39.589Z,4.83
2017-06-15T19:56:07.968Z,4.73
2017-06-15T19:58:35.648Z,5.20
2017-06-15T20:01:04.757Z,5.00
2017-06-15T20:03:32.366Z,5.43
2017-06-15T20:06:00.033Z,5.90
2017-06-15T20:08:27.640Z,5.43
2017-06-15T20:10:55.289Z,5.20
2017-06-15T20:13:22.969Z,4.60
2017-06-15T20:15:50.649Z,4.40
2017-06-15T20:18:18.306Z,4.83
2017-06-15T20:20:52.348Z,5.37
2017-06-15T20:23:25.796Z,4.00
2017-06-15T20:25:53.464Z,5.40
2017-06-15T20:28:21.077Z,4.30
2017-06-15T20:30:48.695Z,4.40
2017-06-15T20:33:22.087Z,5.17
2017-06-15T20:35:49.705Z,5.20
2017-06-15T20:38:17.341Z,5.13
2017-06-15T20:40:45.123Z,4.93
2017-06-15T20:43:12.732Z,5.30
2017-06-15T20:45:40.353Z,4.90
2017-06-15T20:48:08.049Z,5.27
2017-06-15T20:50:35.673Z,4.60
2017-06-15T20:53:03.286Z,5.13
2017-06-15T20:55:31.007Z,4.43
2017-06-15T20:57:58.621Z,4.63
2017-06-15T21:00:27.111Z,5.10
2017-06-15T21:02:54.821Z,4.23
2017-06-15T21:05:22.439Z,4.47
2017-06-15T21:07:50.044Z,4.93
2017-06-15T21:10:17.726Z,5.43
2017-06-15T21:12:45.343Z,4.40
2017-06-15T21:15:12.957Z,5.50
2017-06-15T21:17:40.620Z,4.33
2017-06-15T21:20:08.258Z,5.43
2017-06-15T21:22:35.881Z,6.13
2017-06-15T21:25:03.620Z,5.17
2017-06-15T21:27:31.234Z,5.40
2017-06-15T21:29:58.849Z,6.00
2017-06-15T21:32:26.512Z,8.93
2017-06-15T21:34:54.129Z,5.40
2017-06-15T21:37:21.753Z,8.93
2017-06-15T21:39:49.445Z,5.73
2017-06-15T21:42:17.052Z,5.67
2017-06-15T21:44:44.669Z,5.70
2017-06-15T21:47:12.331Z,6.50
2017-06-15T21:49:39.944Z,6.77
2017-06-15T21:52:07.557Z,6.43
2017-06-15T21:54:35.214Z,5.60
2017-06-15T21:57:02.816Z,6.63
2017-06-15T21:59:30.432Z,6.13
2017-06-15T22:01:58.104Z,6.30
2017-06-15T22:04:26.480Z,5.20
2017-06-15T22:06:54.154Z,5.80
2017-06-15T22:09:21.817Z,6.83
2017-06-15T22:11:49.431Z,6.50
2017-06-15T22:14:17.040Z,5.83
2017-06-15T22:16:44.708Z,6.20
2017-06-15T22:19:12.321Z,6.43
2017-06-15T22:21:39.940Z,5.80
2017-06-15T22:24:07.606Z,6.60
2017-06-15T22:26:35.224Z,7.40
2017-06-15T22:29:02.844Z,7.60
2017-06-15T22:31:30.512Z,11.43
2017-06-15T22:33:58.134Z,13.07
2017-06-15T22:36:25.769Z,14.53
2017-06-15T22:38:54.210Z,15.63
2017-06-15T22:41:21.861Z,14.65
2017-06-15T22:43:49.524Z,13.05
2017-06-15T22:46:17.225Z,10.20
2017-06-15T22:48:45.625Z,8.18
2017-06-15T22:51:13.270Z,6.10
2017-06-15T22:53:40.966Z,5.30
2017-06-15T22:56:08.605Z,5.07
2017-06-15T22:58:36.240Z,4.95
2017-06-15T23:01:03.926Z,4.43
2017-06-15T23:03:44.132Z,4.45
2017-06-15T23:06:11.821Z,4.65
2017-06-15T23:08:39.551Z,4.95
2017-06-15T23:11:07.195Z,4.10
2017-06-15T23:13:35.648Z,3.80
2017-06-15T23:16:03.285Z,4.68
2017-06-15T23:18:30.917Z,4.30
2017-06-15T23:20:58.610Z,4.70
2017-06-15T23:23:26.247Z,4.07
2017-06-15T23:25:54.645Z,3.70
2017-06-15T23:28:22.328Z,4.65
2017-06-15T23:30:49.968Z,5.30
2017-06-15T23:33:17.600Z,5.25
2017-06-15T23:35:45.284Z,4.62
2017-06-15T23:38:12.929Z,5.32
2017-06-15T23:40:40.579Z,5.18
2017-06-15T23:43:08.268Z,5.15
2017-06-15T23:45:35.902Z,4.93
2017-06-15T23:48:03.533Z,5.15
2017-06-15T23:50:31.993Z,6.32
2017-06-15T23:52:59.628Z,6.55
2017-06-15T23:55:27.262Z,5.82
2017-06-15T23:57:54.956Z,6.15
